Quinter, Kansas
Current Conditions -  °F | °C
As of 3:53 PM on Sunday 25 Jan 2015 (Local Time) from KHLC Reporting Station
Clear Clear  
Wind Chill: 53°   Ceiling: Unl
Heat Index: 53°   Visibility: 10mi
Dew Point: 23°   Wind: 17mph
Humidity: 31%   Direction: 350°N
Pressure: 30.09"   Gusts: 22mph
Location:  39.07°N, 100.23°W
Report Text: KHLC 252153Z AUTO 35015G19KT 10SM CLR 12/M05 A3009 RMK AO2 PK WND 35028/2111 SLP191 T01171050
Loading
Personal Weather Stations






























Interactive Weather Map New forecast layout! Learn more

10-Day Weather Forecast

Advertisements
Track Severe Weather on mobile